TAF Text Data
IDs:
Format:
Raw Decoded Include METAR

Data at: 1112 UTC 25 Oct 2020

KDHN 250538Z 2506/2606 00000KT 6SM BR BKN003 OVC010
  TEMPO 2506/2510 1/2SM FG OVC002
  FM251500 00000KT 4SM BR BKN009
  FM251700 35003KT P6SM SCT030